createdAt,value
2023-02-14T00:01:23.842Z,47.78
2023-02-14T00:03:51.255Z,47.22
2023-02-14T00:06:18.559Z,45.60
2023-02-14T00:08:46.290Z,49.72
2023-02-14T00:11:13.790Z,48.83
2023-02-14T00:14:01.631Z,48.90
2023-02-14T00:16:28.953Z,49.63
2023-02-14T00:19:05.955Z,50.97
2023-02-14T00:21:36.285Z,52.17
2023-02-14T00:24:09.590Z,50.22
2023-02-14T05:07:32.864Z,73.78
2023-02-14T05:12:53.104Z,74.57
2023-02-14T05:15:20.806Z,75.45
2023-02-14T05:17:48.197Z,75.70
2023-02-14T05:20:15.544Z,72.95
2023-02-14T05:22:42.946Z,75.97
2023-02-14T05:25:10.306Z,78.05
2023-02-14T05:27:37.520Z,75.75
2023-02-14T05:30:05.821Z,76.15
2023-02-14T05:32:33.213Z,76.57
2023-02-14T05:35:01.319Z,75.70
2023-02-14T05:37:28.641Z,76.07
2023-02-14T05:39:56.462Z,72.82
2023-02-14T05:42:23.686Z,75.72
2023-02-14T05:44:50.976Z,72.57
2023-02-14T05:47:18.215Z,75.85
2023-02-14T05:49:46.038Z,73.53
2023-02-14T05:52:13.278Z,73.55
2023-02-14T05:54:40.576Z,73.45
2023-02-14T05:57:07.845Z,70.53
2023-02-14T05:59:35.313Z,70.97
2023-02-14T06:02:03.065Z,75.55
2023-02-14T06:04:30.680Z,77.28
2023-02-14T06:06:58.048Z,75.38
2023-02-14T06:09:25.473Z,72.65
2023-02-14T06:11:55.260Z,72.72
2023-02-14T06:14:23.020Z,70.90
2023-02-14T06:16:50.990Z,71.68
2023-02-14T06:19:18.374Z,71.93
2023-02-14T06:21:46.845Z,84.45
2023-02-14T06:24:14.288Z,93.18
2023-02-14T06:26:42.131Z,91.50
2023-02-14T06:29:09.463Z,99.95
2023-02-14T06:31:37.361Z,102.57
2023-02-14T06:34:04.638Z,90.15
2023-02-14T06:36:32.281Z,95.45
2023-02-14T06:38:59.568Z,116.70
2023-02-14T06:41:26.976Z,105.18
2023-02-14T06:43:54.830Z,94.03
2023-02-14T06:46:22.452Z,86.35
2023-02-14T06:48:50.916Z,80.15
2023-02-14T06:51:18.278Z,79.90
2023-02-14T06:53:45.630Z,75.30
2023-02-14T06:56:12.963Z,74.93
2023-02-14T06:58:40.253Z,73.93
2023-02-14T07:01:07.625Z,68.45
2023-02-14T07:03:35.014Z,74.20
2023-02-14T07:06:02.396Z,73.20
2023-02-14T07:08:29.663Z,75.72
2023-02-14T07:10:58.740Z,72.40
2023-02-14T07:13:26.978Z,74.40
2023-02-14T07:15:54.529Z,72.05
2023-02-14T07:18:21.993Z,71.40
2023-02-14T07:20:50.729Z,68.97
2023-02-14T07:23:18.459Z,68.82
2023-02-14T07:25:45.830Z,70.20
2023-02-14T07:28:13.599Z,69.20
2023-02-14T07:30:40.973Z,68.68
2023-02-14T07:33:08.382Z,68.70
2023-02-14T07:35:36.517Z,69.63
2023-02-14T07:38:03.899Z,68.72
2023-02-14T07:40:31.161Z,68.95
2023-02-14T07:43:00.758Z,68.53
2023-02-14T07:45:28.079Z,70.68
2023-02-14T07:47:55.714Z,70.13
2023-02-14T07:50:23.889Z,66.55
2023-02-14T07:52:51.278Z,67.60
2023-02-14T07:55:19.324Z,68.15
2023-02-14T07:57:49.847Z,68.93
2023-02-14T08:00:18.780Z,66.60
2023-02-14T08:02:47.163Z,69.13
2023-02-14T08:05:15.623Z,69.20
2023-02-14T08:07:44.353Z,76.60
2023-02-14T08:10:13.122Z,66.82
2023-02-14T08:12:59.443Z,74.05
2023-02-14T08:15:53.295Z,67.32
2023-02-14T08:18:27.168Z,64.03
2023-02-14T08:20:55.200Z,64.35
2023-02-14T08:23:23.031Z,62.17
2023-02-14T08:25:52.271Z,61.20
2023-02-14T08:28:23.308Z,65.35
2023-02-14T08:30:51.325Z,63.43
2023-02-14T08:33:19.296Z,60.38
2023-02-14T08:35:46.982Z,58.67
2023-02-14T08:38:14.847Z,60.80
2023-02-14T08:40:42.880Z,60.17
2023-02-14T08:43:11.234Z,60.05
2023-02-14T08:45:38.786Z,56.50
2023-02-14T08:48:09.465Z,57.47
2023-02-14T08:50:38.026Z,54.97
2023-02-14T08:53:10.256Z,57.00
2023-02-14T08:55:38.354Z,53.92
2023-02-14T08:58:06.750Z,52.25
2023-02-14T09:00:34.691Z,57.45
2023-02-14T09:03:02.493Z,55.20
2023-02-14T09:05:30.808Z,54.58
2023-02-14T09:07:58.510Z,56.65
2023-02-14T09:10:26.588Z,54.25
2023-02-14T09:12:53.982Z,56.67
2023-02-14T09:15:21.421Z,60.05
2023-02-14T09:17:51.044Z,58.28
2023-02-14T09:20:19.270Z,59.40
2023-02-14T09:22:48.643Z,55.33
2023-02-14T09:25:17.452Z,57.72
2023-02-14T09:27:44.923Z,56.83
2023-02-14T09:30:12.879Z,58.92
2023-02-14T09:32:40.241Z,58.50
2023-02-14T09:35:07.854Z,56.33
2023-02-14T09:37:35.243Z,59.10
2023-02-14T09:40:04.660Z,60.08
2023-02-14T09:42:46.692Z,58.72
2023-02-14T09:47:48.966Z,56.78
2023-02-14T09:50:42.446Z,55.72
2023-02-14T09:53:23.266Z,59.35
2023-02-14T09:56:04.577Z,58.38
2023-02-14T09:58:55.051Z,60.83
2023-02-14T10:01:27.761Z,57.55
2023-02-14T10:04:01.545Z,59.17
2023-02-14T10:06:44.030Z,58.17
2023-02-14T10:09:16.517Z,58.47
2023-02-14T10:11:46.389Z,57.30
2023-02-14T10:14:27.915Z,57.80
2023-02-14T10:17:08.035Z,57.70
2023-02-14T10:19:43.446Z,56.30
2023-02-14T10:22:16.411Z,55.50
2023-02-14T10:24:57.543Z,53.55
2023-02-14T10:27:42.261Z,55.83
2023-02-14T10:30:15.104Z,52.53
2023-02-14T10:32:53.224Z,54.30
2023-02-14T10:35:38.927Z,52.85
2023-02-14T10:38:35.101Z,56.45
2023-02-14T10:41:20.916Z,52.80
2023-02-14T10:44:03.401Z,51.80
2023-02-14T10:46:53.208Z,53.30
2023-02-14T10:49:57.807Z,52.13
2023-02-14T10:52:43.903Z,51.45
2023-02-14T10:55:32.361Z,50.53
2023-02-14T10:58:02.997Z,52.95
2023-02-14T11:00:37.442Z,49.67
2023-02-14T11:03:09.489Z,51.33
2023-02-14T11:05:44.979Z,50.17
2023-02-14T11:08:22.971Z,49.15
2023-02-14T11:10:51.115Z,51.75
2023-02-14T11:13:37.280Z,50.28
2023-02-14T11:16:09.039Z,48.88
2023-02-14T11:18:40.954Z,51.20
2023-02-14T11:23:44.491Z,51.10
2023-02-14T11:26:23.086Z,49.80
2023-02-14T11:28:55.650Z,51.47
2023-02-14T11:31:38.237Z,51.42
2023-02-14T11:34:27.573Z,51.53
2023-02-14T11:36:54.950Z,51.78
2023-02-14T11:39:33.074Z,46.88
2023-02-14T11:42:04.434Z,49.33
2023-02-14T11:44:33.998Z,51.75
2023-02-14T11:47:27.146Z,51.40
2023-02-14T11:50:01.377Z,51.78
2023-02-14T11:52:30.867Z,49.08
2023-02-14T11:54:59.182Z,49.28
2023-02-14T11:57:35.220Z,49.20
2023-02-14T12:00:14.118Z,46.03
2023-02-14T12:02:48.917Z,45.78
2023-02-14T12:05:36.790Z,47.80
2023-02-14T12:08:06.493Z,48.55
2023-02-14T12:10:39.453Z,45.78
2023-02-14T12:13:09.848Z,45.92
2023-02-14T12:15:44.873Z,48.58
2023-02-14T12:18:40.361Z,45.63
2023-02-14T12:21:25.719Z,45.50
2023-02-14T12:24:18.631Z,45.45
2023-02-14T12:27:00.289Z,45.20
2023-02-14T12:29:41.973Z,43.60
2023-02-14T12:32:30.595Z,37.08
2023-02-14T12:35:07.290Z,42.55
2023-02-14T12:38:04.421Z,44.47
2023-02-14T12:40:50.513Z,46.00
2023-02-14T12:43:45.384Z,43.33
2023-02-14T12:46:29.864Z,42.47
2023-02-14T12:49:22.548Z,42.50
2023-02-14T12:52:28.482Z,39.85
2023-02-14T12:55:18.270Z,43.22
2023-02-14T12:58:05.474Z,43.78
2023-02-14T13:00:53.698Z,40.65
2023-02-14T13:03:20.917Z,43.33
2023-02-14T13:06:05.461Z,43.65
2023-02-14T13:09:22.309Z,45.72
2023-02-14T13:12:12.916Z,45.47
2023-02-14T13:14:59.258Z,44.55
2023-02-14T13:17:46.433Z,46.83
2023-02-14T13:20:45.013Z,48.05
2023-02-14T13:23:19.103Z,47.72
2023-02-14T13:25:58.194Z,47.00
2023-02-14T13:28:27.296Z,47.55
2023-02-14T13:30:56.313Z,46.67
2023-02-14T13:33:37.991Z,46.67
2023-02-14T13:36:08.851Z,46.47
2023-02-14T13:38:51.945Z,48.87
2023-02-14T13:41:22.356Z,46.10
2023-02-14T13:43:52.907Z,45.83
2023-02-14T13:46:32.181Z,49.72
2023-02-14T13:49:31.808Z,44.70
2023-02-14T13:52:03.486Z,47.40
2023-02-14T13:54:34.335Z,48.15
2023-02-14T13:57:31.487Z,48.10
2023-02-14T14:00:17.404Z,46.53
2023-02-14T14:02:48.376Z,46.38
2023-02-14T14:05:30.735Z,46.75
2023-02-14T14:08:23.222Z,47.95
2023-02-14T14:10:55.837Z,46.90
2023-02-14T14:13:41.550Z,47.42
2023-02-14T14:16:27.529Z,48.10
2023-02-14T14:19:09.700Z,47.72
2023-02-14T14:21:41.281Z,48.05
2023-02-14T14:26:58.191Z,48.13
2023-02-14T14:29:32.590Z,48.25
2023-02-14T14:32:08.904Z,48.97
2023-02-14T14:34:36.227Z,49.17
2023-02-14T14:37:06.750Z,49.22
2023-02-14T14:39:35.686Z,50.25
2023-02-14T14:42:15.126Z,51.60
2023-02-14T14:44:53.305Z,49.50
2023-02-14T14:47:37.854Z,48.72
2023-02-14T14:50:10.238Z,48.55
2023-02-14T14:52:41.787Z,48.80
2023-02-14T14:55:21.184Z,51.15
2023-02-14T14:57:56.996Z,51.38
2023-02-14T15:00:28.950Z,53.53
2023-02-14T15:02:57.904Z,49.42
2023-02-14T15:05:38.671Z,48.80
2023-02-14T15:08:21.988Z,48.83
2023-02-14T15:11:04.504Z,48.83
2023-02-14T15:13:57.498Z,48.40
2023-02-14T15:16:32.432Z,48.92
2023-02-14T15:19:10.470Z,51.05
2023-02-14T15:21:44.224Z,51.47
2023-02-14T15:24:16.040Z,48.63
2023-02-14T15:26:48.216Z,48.55
2023-02-14T15:29:27.672Z,47.67
2023-02-14T15:32:00.444Z,51.80
2023-02-14T15:34:32.586Z,49.08
2023-02-14T15:37:06.252Z,50.97
2023-02-14T15:39:37.823Z,47.75
2023-02-14T15:42:19.584Z,46.30
2023-02-14T15:44:46.954Z,47.40
2023-02-14T15:47:16.222Z,48.50
2023-02-14T15:49:46.606Z,48.72
2023-02-14T15:52:16.153Z,47.75
2023-02-14T15:54:47.237Z,50.17
2023-02-14T15:57:29.566Z,52.00
2023-02-14T15:59:57.219Z,49.67
2023-02-14T16:02:36.679Z,51.70
2023-02-14T16:05:15.872Z,49.08
2023-02-14T16:08:05.915Z,47.60
2023-02-14T16:10:34.536Z,48.17
2023-02-14T16:13:20.708Z,48.70
2023-02-14T16:16:06.627Z,46.08
2023-02-14T16:18:38.983Z,46.00
2023-02-14T16:21:33.197Z,49.58
2023-02-14T16:24:07.142Z,48.05
2023-02-14T16:26:35.887Z,47.67
2023-02-14T16:29:04.910Z,48.30
2023-02-14T16:31:34.345Z,48.22
2023-02-14T16:34:01.844Z,48.22
2023-02-14T16:36:31.944Z,47.63
2023-02-14T16:39:03.281Z,47.72
2023-02-14T16:41:33.136Z,48.20
2023-02-14T16:44:00.737Z,46.97
2023-02-14T16:46:35.362Z,47.40
2023-02-14T16:49:02.723Z,47.70
2023-02-14T16:51:33.861Z,52.95
2023-02-14T16:54:06.484Z,52.28
2023-02-14T16:56:42.492Z,47.13
2023-02-14T16:59:10.771Z,49.97
2023-02-14T17:01:38.083Z,46.42
2023-02-14T17:04:05.844Z,50.95
2023-02-14T17:06:35.947Z,51.45
2023-02-14T17:09:08.940Z,47.53
2023-02-14T17:11:42.264Z,45.58
2023-02-14T17:14:13.671Z,47.40
2023-02-14T17:16:42.178Z,46.85
2023-02-14T17:19:10.335Z,48.72
2023-02-14T17:21:38.452Z,48.45
2023-02-14T17:24:05.905Z,45.55
2023-02-14T17:26:33.878Z,48.67
2023-02-14T17:29:01.612Z,44.20
2023-02-14T17:31:29.100Z,44.53
2023-02-14T17:33:56.673Z,45.63
2023-02-14T17:36:24.657Z,46.40
2023-02-14T17:38:54.075Z,46.42
2023-02-14T17:41:26.520Z,46.03
2023-02-14T17:43:54.870Z,48.60
2023-02-14T17:46:22.258Z,48.53
2023-02-14T17:48:50.103Z,52.22
2023-02-14T17:51:20.352Z,53.63
2023-02-14T17:53:48.902Z,54.28
2023-02-14T17:56:22.955Z,56.97
2023-02-14T17:58:51.873Z,58.85
2023-02-14T18:01:22.232Z,57.92
2023-02-14T18:03:51.874Z,56.63
2023-02-14T18:06:19.757Z,52.95
2023-02-14T18:08:49.885Z,56.58
2023-02-14T18:11:19.462Z,57.50
2023-02-14T18:13:47.192Z,54.58
2023-02-14T18:16:18.004Z,55.65
2023-02-14T18:18:45.929Z,61.97
2023-02-14T18:21:15.810Z,56.90
2023-02-14T18:23:43.442Z,56.03
2023-02-14T18:26:13.229Z,56.70
2023-02-14T18:28:41.281Z,55.72
2023-02-14T18:31:15.269Z,52.47
2023-02-14T18:33:43.783Z,51.08
2023-02-14T18:36:14.084Z,52.70
2023-02-14T18:38:43.407Z,53.75
2023-02-14T18:41:14.058Z,52.78
2023-02-14T18:43:45.223Z,54.35
2023-02-14T18:46:18.547Z,55.65
2023-02-14T18:48:46.293Z,53.88
2023-02-14T18:51:19.177Z,51.80
2023-02-14T18:53:47.880Z,51.38
2023-02-14T18:56:17.520Z,51.78
2023-02-14T18:58:48.016Z,52.60
2023-02-14T19:01:18.093Z,51.03
2023-02-14T19:03:52.890Z,52.80
2023-02-14T19:06:21.511Z,54.10
2023-02-14T19:08:50.195Z,55.00
2023-02-14T19:11:20.218Z,54.17
2023-02-14T19:13:50.044Z,52.22
2023-02-14T19:16:21.028Z,54.28
2023-02-14T19:18:49.824Z,56.13
2023-02-14T19:21:22.370Z,59.80
2023-02-14T19:23:49.896Z,58.47
2023-02-14T19:26:23.335Z,60.22
2023-02-14T19:28:59.524Z,62.03
2023-02-14T19:31:27.821Z,63.33
2023-02-14T19:33:55.465Z,61.30
2023-02-14T19:36:24.397Z,60.63
2023-02-14T19:38:53.485Z,59.28
2023-02-14T19:41:24.860Z,54.90
2023-02-14T19:43:53.081Z,59.28
2023-02-14T19:46:21.842Z,57.90
2023-02-14T19:48:49.715Z,55.92
2023-02-14T19:51:29.682Z,55.53
2023-02-14T19:53:58.902Z,53.45
2023-02-14T19:56:28.969Z,54.72
2023-02-14T19:58:56.771Z,53.90
2023-02-14T20:01:31.885Z,70.05
2023-02-14T20:03:59.213Z,72.65
2023-02-14T20:06:29.243Z,67.15
2023-02-14T20:08:57.732Z,67.95
2023-02-14T20:11:30.590Z,66.70
2023-02-14T20:13:58.996Z,71.78
2023-02-14T20:16:28.233Z,66.47
2023-02-14T20:18:56.507Z,56.20
2023-02-14T20:21:28.205Z,55.92
2023-02-14T20:24:01.012Z,58.85
2023-02-14T20:26:30.975Z,56.40
2023-02-14T20:28:59.791Z,54.55
2023-02-14T20:31:27.165Z,59.75
2023-02-14T20:33:55.888Z,56.33
2023-02-14T20:36:24.866Z,54.33
2023-02-14T20:38:57.166Z,54.78
2023-02-14T20:41:27.621Z,54.65
2023-02-14T20:43:55.985Z,49.30
2023-02-14T20:46:23.470Z,50.20
2023-02-14T20:48:51.046Z,50.28
2023-02-14T20:51:20.920Z,43.53
2023-02-14T20:53:48.905Z,45.08
2023-02-14T20:56:17.201Z,47.55
2023-02-14T20:58:44.795Z,42.95
2023-02-14T21:01:15.332Z,44.95
2023-02-14T21:03:46.694Z,42.83
2023-02-14T21:06:14.996Z,45.63
2023-02-14T21:08:43.602Z,46.53
2023-02-14T21:11:13.437Z,51.47
2023-02-14T21:13:41.386Z,49.92
2023-02-14T21:16:12.486Z,48.05
2023-02-14T21:18:40.233Z,50.88
2023-02-14T21:21:13.443Z,49.28
2023-02-14T21:23:41.919Z,48.95
2023-02-14T21:26:09.395Z,51.58
2023-02-14T21:28:36.826Z,52.40
2023-02-14T21:31:11.065Z,53.28
2023-02-14T21:33:38.858Z,53.75
2023-02-14T21:36:12.115Z,59.35
2023-02-14T21:38:39.766Z,61.40
2023-02-14T21:41:10.694Z,59.28
2023-02-14T21:43:40.617Z,61.70
2023-02-14T21:46:14.660Z,56.70
2023-02-14T21:49:02.587Z,54.90
2023-02-14T21:51:30.237Z,55.35
2023-02-14T21:53:59.785Z,55.22
2023-02-14T21:56:28.195Z,57.10
2023-02-14T21:58:56.145Z,54.53
2023-02-14T22:01:29.098Z,54.63
2023-02-14T22:03:56.782Z,55.67
